Time;durP1;ratioP1;P1;durP2;ratioP2;P2;SDS_P1;SDS_P2;PMS_P1;PMS_P2;Temp;Humidity;BMP_temperature;BMP_pressure;BME280_temperature;BME280_humidity;BME280_pressure;Samples;Min_cycle;Max_cycle;Signal;HPM_P1;HPM_P2
2023/03/25 00:01:12;;;;;;;31.67;17.53;;;;;;;-141.97;64.98;47649.78;4977417;28;20233;-90
2023/03/25 00:03:45;;;;;;;96.43;39.13;;;;;;;-141.97;64.57;47672.84;4976835;28;20175;-89
2023/03/25 00:06:12;;;;;;;65.53;29.87;;;;;;;-141.97;64.61;47597.88;4977886;28;20160;-89
2023/03/25 00:08:38;;;;;;;46.17;23.10;;;;;;;-141.97;64.51;47513.31;4976445;28;20691;-89
2023/03/25 00:11:05;;;;;;;32.93;17.93;;;;;;;-141.97;64.72;47649.78;4976484;28;20267;-89
2023/03/25 00:13:31;;;;;;;31.10;17.37;;;;;;;-141.97;64.73;47690.16;5002632;28;20187;-88
2023/03/25 00:15:58;;;;;;;31.67;17.67;;;;;;;-141.97;64.25;47569.06;5015133;28;20192;-90
2023/03/25 00:18:28;;;;;;;32.87;18.20;;;;;;;-141.97;64.51;47609.41;5015977;28;20176;-89
2023/03/25 00:20:55;;;;;;;35.20;19.00;;;;;;;-141.97;64.32;47615.19;4995124;28;20325;-89
2023/03/25 00:23:21;;;;;;;35.27;19.13;;;;;;;-141.97;64.10;47638.25;4993764;28;20712;-90
2023/03/25 00:25:48;;;;;;;35.30;19.70;;;;;;;-141.97;64.76;47686.31;4995530;28;20612;-88
2023/03/25 00:28:14;;;;;;;34.53;20.03;;;;;;;-141.97;66.45;47661.31;4998333;28;20694;-89
2023/03/25 00:30:41;;;;;;;36.10;19.57;;;;;;;-141.97;66.88;47726.66;4996176;28;20186;-88
2023/03/25 00:33:09;;;;;;;37.50;19.40;;;;;;;-141.97;66.87;47524.84;4994895;28;20259;-89
2023/03/25 00:35:37;;;;;;;45.70;25.37;;;;;;;-141.97;66.31;47669.00;4999406;28;20186;-89
2023/03/25 00:38:02;;;;;;;38.13;22.37;;;;;;;-141.97;66.97;47574.81;4994006;28;20183;-89
2023/03/25 00:40:35;;;;;;;34.63;19.60;;;;;;;-141.97;67.79;47549.84;4976610;28;20160;-89
2023/03/25 00:43:03;;;;;;;33.27;19.23;;;;;;;-141.97;68.37;47669.00;4976533;28;20164;-89
2023/03/25 00:45:29;;;;;;;37.03;19.83;;;;;;;-141.97;69.90;47624.78;4988037;28;20175;-86
2023/03/25 00:47:55;;;;;;;34.63;18.57;;;;;;;-141.97;69.36;47676.69;4983466;28;20195;-89
2023/03/25 00:50:21;;;;;;;36.87;19.63;;;;;;;-141.97;69.71;47551.75;4974902;28;20198;-90
2023/03/25 00:52:47;;;;;;;34.07;19.60;;;;;;;-141.97;69.80;47678.63;4978410;28;20172;-90
2023/03/25 00:55:13;;;;;;;32.47;19.53;;;;;;;-141.97;70.57;47603.66;4995822;28;20202;-89
2023/03/25 00:57:38;;;;;;;32.37;18.47;;;;;;;-141.97;72.04;47680.53;4994525;28;20620;-89
2023/03/25 01:00:07;;;;;;;34.57;18.90;;;;;;;-141.97;73.57;47634.41;4993153;28;20167;-89
2023/03/25 01:02:33;;;;;;;37.50;19.73;;;;;;;-141.97;73.91;47722.81;4994569;28;20214;-89
2023/03/25 01:04:59;;;;;;;38.40;20.33;;;;;;;-141.97;74.65;47613.25;4994681;28;20163;-89
2023/03/25 01:07:24;;;;;;;35.13;20.17;;;;;;;-141.97;75.14;47684.38;4992270;28;20179;-90
2023/03/25 01:09:50;;;;;;;35.50;19.63;;;;;;;-141.97;75.70;47732.44;4993984;28;20203;-89
2023/03/25 01:12:17;;;;;;;46.43;23.90;;;;;;;-141.97;75.63;47657.47;4993574;28;20178;-89
2023/03/25 01:14:43;;;;;;;39.97;21.17;;;;;;;-141.97;75.87;47738.19;4993120;28;20171;-89
2023/03/25 01:17:09;;;;;;;49.30;26.17;;;;;;;-141.97;76.48;47763.19;4992721;28;20472;-89
2023/03/25 01:19:35;;;;;;;84.10;44.23;;;;;;;-141.97;75.85;47634.41;4994426;28;20160;-89
2023/03/25 01:22:00;;;;;;;42.47;23.57;;;;;;;-141.97;75.59;47611.34;5011462;28;20173;-89
2023/03/25 01:24:26;;;;;;;46.63;25.27;;;;;;;-141.97;75.33;47634.41;5002694;28;20191;-89
2023/03/25 01:26:51;;;;;;;43.20;23.53;;;;;;;-141.97;75.59;47605.56;4993769;28;20563;-89
2023/03/25 01:29:20;;;;;;;39.00;21.13;;;;;;;-141.97;76.08;47605.56;4993141;28;20210;-89
2023/03/25 01:31:46;;;;;;;36.70;20.53;;;;;;;-141.97;75.69;47665.16;4993330;28;20175;-89
2023/03/25 01:34:13;;;;;;;35.37;18.77;;;;;;;-141.97;76.25;47684.38;4994597;28;20449;-89
2023/03/25 01:36:39;;;;;;;36.23;20.13;;;;;;;-141.97;77.09;47597.88;4992474;28;20402;-90
2023/03/25 01:39:07;;;;;;;38.23;20.93;;;;;;;-141.97;76.42;47665.16;4992289;28;20903;-89
2023/03/25 01:41:35;;;;;;;34.20;19.67;;;;;;;-141.97;76.57;47632.47;4992016;28;20474;-90
2023/03/25 01:44:28;;;;;;;36.30;20.20;;;;;;;-141.97;76.66;47657.47;4992131;28;20414;-89
2023/03/25 01:46:55;;;;;;;38.73;20.47;;;;;;;-141.97;76.54;47626.72;4992024;28;20624;-89
2023/03/25 01:49:28;;;;;;;36.63;20.03;;;;;;;-141.97;77.11;47703.59;4991955;28;20484;-89
2023/03/25 01:52:01;;;;;;;37.70;21.03;;;;;;;-141.97;77.93;47711.28;4993475;28;20465;-89
2023/03/25 01:54:27;;;;;;;36.47;20.03;;;;;;;-141.97;77.46;47742.03;4993860;28;20903;-88
2023/03/25 01:56:53;;;;;;;35.93;20.07;;;;;;;-141.97;77.25;47653.63;4992180;28;20394;-89
2023/03/25 01:59:23;;;;;;;35.73;20.30;;;;;;;-141.97;77.18;47711.28;4992370;28;20589;-88
2023/03/25 02:01:50;;;;;;;37.47;20.83;;;;;;;-141.97;76.34;47569.06;4993450;28;20418;-88
2023/03/25 02:04:26;;;;;;;33.90;19.30;;;;;;;-141.97;75.98;47768.94;4992966;28;20490;-88
2023/03/25 02:06:53;;;;;;;35.77;19.27;;;;;;;-141.97;75.43;47644.00;4991559;28;20479;-88
2023/03/25 02:09:23;;;;;;;37.90;19.70;;;;;;;-141.97;75.18;47638.25;4993740;28;20454;-88
2023/03/25 02:11:48;;;;;;;34.87;19.23;;;;;;;-141.97;75.19;47597.88;4999838;28;20437;-88
2023/03/25 02:14:17;;;;;;;35.00;19.37;;;;;;;-141.97;74.59;47667.06;5006115;28;20198;-89
2023/03/25 02:16:55;;;;;;;35.17;20.60;;;;;;;-141.97;74.40;47711.28;5012148;28;20172;-90
2023/03/25 02:19:39;;;;;;;36.17;19.57;;;;;;;-141.97;74.14;47657.47;4997389;28;20166;-89
2023/03/25 02:22:20;;;;;;;33.93;18.83;;;;;;;-141.97;73.64;47657.47;4996854;28;20255;-90
2023/03/25 02:25:17;;;;;;;35.07;19.90;;;;;;;-141.97;73.62;47684.38;4997010;28;20163;-90
2023/03/25 02:27:55;;;;;;;49.67;23.83;;;;;;;-141.97;73.33;47649.78;4984194;28;20168;-89
2023/03/25 02:31:05;;;;;;;37.20;18.77;;;;;;;-141.97;73.48;47703.59;4984207;28;20226;-89
2023/03/25 02:33:46;;;;;;;39.50;19.60;;;;;;;-141.97;74.08;47684.38;5001732;28;20263;-89
2023/03/25 02:36:40;;;;;;;37.20;18.93;;;;;;;-141.97;74.48;47672.84;4987707;28;20235;-88
2023/03/25 02:39:30;;;;;;;38.07;18.83;;;;;;;-141.97;74.23;47763.19;4988440;28;20820;-88
2023/03/25 02:42:16;;;;;;;35.37;19.13;;;;;;;-141.97;75.09;47753.56;4968528;28;20227;-89
2023/03/25 02:44:45;;;;;;;35.60;19.33;;;;;;;-141.97;75.24;47707.44;4978654;28;20828;-88
2023/03/25 02:47:16;;;;;;;34.90;18.90;;;;;;;-141.97;75.19;47674.78;4979894;28;20481;-88
2023/03/25 02:49:49;;;;;;;36.30;19.23;;;;;;;-141.97;74.92;47678.63;4979613;28;20579;-90
2023/03/25 02:52:29;;;;;;;32.13;17.90;;;;;;;-141.97;74.43;47647.84;4977796;28;20273;-88
2023/03/25 02:55:00;;;;;;;33.57;17.93;;;;;;;-141.97;74.31;47611.34;5000763;28;20186;-88
2023/03/25 02:57:27;;;;;;;35.73;18.23;;;;;;;-141.97;73.85;47688.22;4980779;28;20202;-90
2023/03/25 02:59:54;;;;;;;34.73;17.63;;;;;;;-141.97;72.96;47649.78;4977749;28;20171;-90
2023/03/25 03:02:24;;;;;;;30.30;17.33;;;;;;;-141.97;73.33;47692.06;4977603;28;20219;-89
2023/03/25 03:04:49;;;;;;;33.67;18.53;;;;;;;-141.97;73.82;47659.38;4977296;28;20171;-89
2023/03/25 03:07:26;;;;;;;30.27;16.97;;;;;;;-141.97;74.04;47692.06;4993477;28;20319;-89
2023/03/25 03:10:01;;;;;;;29.73;17.40;;;;;;;-141.97;72.96;47655.53;4974733;28;20607;-90
2023/03/25 03:12:44;;;;;;;32.10;17.40;;;;;;;-141.97;73.20;47661.31;4976577;28;20196;-89
2023/03/25 03:15:28;;;;;;;32.73;17.60;;;;;;;-141.97;73.36;47705.53;4976921;28;20171;-90
2023/03/25 03:18:33;;;;;;;29.67;16.40;;;;;;;-141.97;74.09;47674.78;4975844;28;20175;-89
2023/03/25 03:21:25;;;;;;;31.80;17.17;;;;;;;-141.97;74.30;47661.31;4991316;28;20167;-89
2023/03/25 03:23:59;;;;;;;30.80;17.57;;;;;;;-141.97;74.61;47669.00;4975789;28;20176;-89
2023/03/25 03:26:36;;;;;;;30.63;17.37;;;;;;;-141.97;74.26;47788.19;4976492;28;20407;-89
2023/03/25 03:29:19;;;;;;;29.90;17.03;;;;;;;-141.97;74.20;47695.91;4975381;28;20694;-90
2023/03/25 03:31:51;;;;;;;29.33;16.43;;;;;;;-141.97;74.25;47692.06;4975819;28;20636;-89
2023/03/25 03:34:35;;;;;;;34.77;17.60;;;;;;;-141.97;74.17;47745.88;4980303;28;20483;-89
2023/03/25 03:37:03;;;;;;;31.13;16.60;;;;;;;-141.97;73.93;47686.31;4993371;28;20415;-90
2023/03/25 03:39:33;;;;;;;30.50;16.40;;;;;;;-141.97;73.77;47770.88;4986329;28;20160;-90
2023/03/25 03:42:31;;;;;;;34.13;16.90;;;;;;;-141.97;73.66;47665.16;4975702;28;20479;-89
2023/03/25 03:45:05;;;;;;;31.60;17.00;;;;;;;-141.97;73.84;47644.00;4955991;29;20345;-90
2023/03/25 03:47:38;;;;;;;34.67;18.63;;;;;;;-141.97;73.39;47665.16;4955098;29;20475;-89
2023/03/25 03:50:08;;;;;;;47.83;24.07;;;;;;;-141.97;73.17;47738.19;4955233;29;20212;-90
2023/03/25 03:52:46;;;;;;;51.50;26.37;;;;;;;-141.97;73.19;47647.84;4938945;29;20177;-90
2023/03/25 03:55:17;;;;;;;45.90;24.23;;;;;;;-141.97;73.25;47655.53;4938431;29;20440;-89
2023/03/25 03:57:53;;;;;;;45.47;24.37;;;;;;;-141.97;73.35;47619.03;4954347;29;20181;-90
2023/03/25 04:00:35;;;;;;;65.50;30.27;;;;;;;-141.97;73.19;47676.69;4938343;29;20172;-89
2023/03/25 04:03:14;;;;;;;56.03;27.10;;;;;;;-141.97;73.50;47622.88;4954277;29;20677;-89
2023/03/25 04:05:47;;;;;;;48.00;23.93;;;;;;;-141.97;73.26;47676.69;4954660;29;20924;-89
2023/03/25 04:08:22;;;;;;;35.77;19.47;;;;;;;-141.97;73.39;47626.72;4938634;29;20244;-90
2023/03/25 04:11:16;;;;;;;34.40;18.07;;;;;;;-141.97;73.53;47588.28;4954873;29;20196;-89
2023/03/25 04:13:46;;;;;;;31.57;16.53;;;;;;;-141.97;73.67;47751.66;4898915;29;20446;-90
2023/03/25 04:16:11;;;;;;;30.07;16.37;;;;;;;-141.97;73.16;47645.94;4898389;29;20435;-89
2023/03/25 04:18:38;;;;;;;29.13;16.67;;;;;;;-141.97;73.92;47615.19;4882649;29;20487;-90
2023/03/25 04:21:04;;;;;;;29.70;15.93;;;;;;;-141.97;73.98;47605.56;4907881;29;20189;-91
2023/03/25 04:23:29;;;;;;;27.70;16.33;;;;;;;-141.97;74.27;47619.03;4935510;29;20413;-90
2023/03/25 04:25:55;;;;;;;97.97;61.97;;;;;;;-141.97;74.87;47626.72;4919333;29;20181;-90
2023/03/25 04:28:22;;;;;;;177.73;103.90;;;;;;;-141.97;75.73;47703.59;4919840;29;20228;-90
2023/03/25 04:30:54;;;;;;;142.33;85.27;;;;;;;-141.97;75.66;47688.22;4932911;29;20212;-90
2023/03/25 04:33:24;;;;;;;132.00;81.80;;;;;;;-141.97;75.58;47701.69;4924754;29;20504;-90
2023/03/25 04:35:50;;;;;;;141.93;90.50;;;;;;;-141.97;76.02;47609.41;4934629;29;20422;-90
2023/03/25 04:38:17;;;;;;;66.70;41.33;;;;;;;-141.97;76.17;47619.03;4933934;29;20432;-90
2023/03/25 04:40:45;;;;;;;57.70;34.87;;;;;;;-141.97;75.69;47672.84;4934078;29;20577;-90
2023/03/25 04:43:14;;;;;;;80.27;46.73;;;;;;;-141.97;75.07;47640.16;4934587;29;20515;-90
2023/03/25 04:45:47;;;;;;;73.57;44.13;;;;;;;-141.97;75.06;47669.00;4935043;29;20841;-91
2023/03/25 04:48:24;;;;;;;44.83;27.20;;;;;;;-141.97;74.49;47688.22;4933713;29;20531;-90
2023/03/25 04:50:50;;;;;;;132.43;79.47;;;;;;;-141.97;74.86;47619.03;4968852;28;20438;-90
2023/03/25 04:53:16;;;;;;;155.97;90.33;;;;;;;-141.97;74.79;47590.19;4984451;28;20430;-91
2023/03/25 04:55:46;;;;;;;53.00;28.70;;;;;;;-141.97;74.14;47584.44;4996770;28;20190;-90
2023/03/25 04:58:14;;;;;;;80.17;41.90;;;;;;;-141.97;73.88;47592.13;5000704;28;20403;-91
2023/03/25 05:00:41;;;;;;;98.07;47.60;;;;;;;-141.97;73.83;47699.75;4996415;28;20411;-90
2023/03/25 05:03:08;;;;;;;57.17;31.10;;;;;;;-141.97;74.22;47628.63;4993591;28;20477;-90
2023/03/25 05:05:34;;;;;;;57.07;32.57;;;;;;;-141.97;73.91;47622.88;4994419;28;20498;-90
2023/03/25 05:08:00;;;;;;;56.43;31.53;;;;;;;-141.97;75.29;47742.03;4992782;28;20459;-90
2023/03/25 05:10:28;;;;;;;58.63;34.70;;;;;;;-141.97;76.25;47595.97;4994004;28;20191;-90
2023/03/25 05:12:58;;;;;;;42.70;24.70;;;;;;;-141.97;76.60;47674.78;4994919;28;20637;-89
2023/03/25 05:15:23;;;;;;;49.00;28.20;;;;;;;-141.97;77.03;47634.41;4993291;28;20919;-90
2023/03/25 05:17:49;;;;;;;52.67;29.97;;;;;;;-141.97;76.34;47595.97;4992744;28;20407;-91
2023/03/25 05:20:15;;;;;;;44.80;26.57;;;;;;;-141.97;75.18;47717.06;4992858;28;20167;-91
2023/03/25 05:22:40;;;;;;;37.20;20.67;;;;;;;-141.97;74.52;47561.38;4996618;28;20164;-89
2023/03/25 05:25:09;;;;;;;42.27;22.60;;;;;;;-141.97;74.32;47647.84;4995078;28;20203;-88
2023/03/25 05:27:35;;;;;;;48.43;26.10;;;;;;;-141.97;73.31;47640.16;4994341;28;20163;-87
2023/03/25 05:30:01;;;;;;;43.33;23.13;;;;;;;-141.97;72.35;47755.50;4976066;28;20490;-88
2023/03/25 05:32:33;;;;;;;39.03;22.63;;;;;;;-141.97;73.11;47692.06;4974487;28;20267;-88
2023/03/25 05:35:00;;;;;;;39.30;21.87;;;;;;;-141.97;73.42;47674.78;4974358;28;20168;-88
2023/03/25 05:37:26;;;;;;;37.93;19.83;;;;;;;-141.97;72.99;47659.38;4973796;28;20411;-88
2023/03/25 05:39:51;;;;;;;33.90;19.60;;;;;;;-141.97;72.73;47734.34;4973862;28;20411;-87
2023/03/25 05:42:21;;;;;;;33.97;17.27;;;;;;;-141.97;72.26;47688.22;4975173;28;20433;-88
2023/03/25 05:44:50;;;;;;;35.77;20.10;;;;;;;-141.97;72.76;47620.94;4990124;28;20171;-88
2023/03/25 05:47:25;;;;;;;38.90;20.23;;;;;;;-141.97;72.16;47686.31;4973883;28;20458;-87
2023/03/25 05:49:52;;;;;;;41.67;22.30;;;;;;;-141.97;71.54;47688.22;4973822;28;20529;-91
2023/03/25 05:52:19;;;;;;;48.70;25.30;;;;;;;-141.97;71.72;47649.78;4988460;28;20415;-88
2023/03/25 05:54:45;;;;;;;52.33;26.97;;;;;;;-141.97;71.74;47653.63;4973471;28;20502;-89
2023/03/25 05:57:12;;;;;;;31.37;15.60;;;;;;;-141.97;73.06;47661.31;4973334;28;20171;-87
2023/03/25 05:59:39;;;;;;;31.80;17.93;;;;;;;-141.97;73.68;47584.44;4989293;28;20431;-88
2023/03/25 06:02:07;;;;;;;27.00;15.63;;;;;;;-141.97;72.95;47768.94;4975489;28;20408;-87
2023/03/25 06:04:40;;;;;;;24.60;14.10;;;;;;;-141.97;72.00;47699.75;4972626;28;20628;-87
2023/03/25 06:07:18;;;;;;;29.07;17.57;;;;;;;-141.97;70.84;47688.22;4974883;28;20171;-86
2023/03/25 06:09:47;;;;;;;54.10;30.40;;;;;;;-141.97;70.53;47707.44;4973386;28;20188;-86
2023/03/25 06:12:18;;;;;;;41.70;23.27;;;;;;;-141.97;69.33;47680.53;4977713;28;20223;-87
2023/03/25 06:14:45;;;;;;;25.97;15.47;;;;;;;-141.97;69.23;47707.44;4979115;28;20160;-86
2023/03/25 06:17:15;;;;;;;30.70;18.83;;;;;;;-141.97;69.82;47707.44;4980109;28;20235;-87
2023/03/25 06:19:40;;;;;;;27.63;17.40;;;;;;;-141.97;68.60;47711.28;4979867;28;20944;-87
2023/03/25 06:22:08;;;;;;;25.43;15.27;;;;;;;-141.97;67.27;47653.63;4984083;28;20642;-87
2023/03/25 06:24:37;;;;;;;25.40;16.40;;;;;;;-141.97;66.74;47607.50;4993798;28;20171;-86
2023/03/25 06:27:05;;;;;;;26.47;15.43;;;;;;;-141.97;65.79;47559.44;4987189;28;20250;-88
2023/03/25 06:29:38;;;;;;;25.63;15.43;;;;;;;-141.97;65.19;47663.22;4989462;28;20196;-84
2023/03/25 06:32:04;;;;;;;23.67;14.60;;;;;;;-141.97;64.27;47657.47;4978879;28;20634;-87
2023/03/25 06:34:31;;;;;;;23.83;13.80;;;;;;;-141.97;64.11;47665.16;4973761;28;20168;-85
2023/03/25 06:36:57;;;;;;;29.17;15.33;;;;;;;-141.97;65.41;47745.88;4974818;28;20211;-89
2023/03/25 06:39:23;;;;;;;32.53;17.43;;;;;;;-141.97;65.65;47576.75;5008285;28;20278;-90
2023/03/25 06:41:49;;;;;;;34.00;19.80;;;;;;;-141.97;64.70;47784.34;4993901;28;20728;-91
2023/03/25 06:44:15;;;;;;;28.10;16.70;;;;;;;-141.97;62.57;47674.78;4994800;28;20326;-91
2023/03/25 06:46:41;;;;;;;30.87;16.73;;;;;;;-141.97;61.14;47580.59;4995418;28;20167;-93
2023/03/25 06:49:06;;;;;;;25.67;13.83;;;;;;;-141.97;59.27;47780.47;4992302;28;20222;-91
2023/03/25 06:51:32;;;;;;;22.97;13.37;;;;;;;-141.97;59.28;47542.16;4991776;28;20690;-91
2023/03/25 06:53:57;;;;;;;20.30;13.10;;;;;;;-141.97;58.53;47588.28;4992388;28;20615;-92
2023/03/25 06:56:23;;;;;;;24.07;14.30;;;;;;;-141.97;58.10;47793.94;4995054;28;20204;-91
2023/03/25 06:58:48;;;;;;;34.13;18.83;;;;;;;-141.97;57.43;47607.50;4995807;28;20167;-91
2023/03/25 07:01:13;;;;;;;23.93;14.43;;;;;;;-141.97;56.84;47778.56;5001747;28;20167;-91
2023/03/25 07:03:39;;;;;;;22.53;12.90;;;;;;;-141.97;56.43;47582.50;4998473;28;20250;-93
2023/03/25 07:06:05;;;;;;;20.47;11.03;;;;;;;-141.97;54.62;47642.09;5011593;28;20195;-93
2023/03/25 07:08:31;;;;;;;16.50;10.73;;;;;;;-141.97;55.00;47588.28;4994986;28;20234;-91
2023/03/25 07:11:01;;;;;;;22.27;12.30;;;;;;;-141.97;54.36;47657.47;5011059;28;20175;-91
2023/03/25 07:13:27;;;;;;;27.00;13.93;;;;;;;-141.97;53.64;47742.03;4994793;28;20187;-91
2023/03/25 07:15:55;;;;;;;18.23;11.40;;;;;;;-141.97;52.38;47669.00;5010729;28;20222;-92
2023/03/25 07:18:20;;;;;;;20.80;12.17;;;;;;;-141.97;52.17;47738.19;4997493;28;20175;-91
2023/03/25 07:20:45;;;;;;;24.13;14.03;;;;;;;-141.97;51.92;47768.94;4995941;28;20239;-90
2023/03/25 07:23:11;;;;;;;24.93;15.30;;;;;;;-141.97;52.58;47430.66;4997833;28;20632;-90
2023/03/25 07:25:36;;;;;;;20.37;12.20;;;;;;;-141.97;51.48;47569.06;4994608;28;20628;-91
2023/03/25 07:28:02;;;;;;;19.67;12.27;;;;;;;-141.97;50.13;47640.16;4994827;28;20207;-92
2023/03/25 07:30:27;;;;;;;19.73;12.43;;;;;;;-141.97;49.68;47559.44;4997161;28;20173;-92
2023/03/25 07:32:53;;;;;;;19.53;12.97;;;;;;;-141.97;49.39;47501.78;4998755;28;20164;-90
2023/03/25 07:35:18;;;;;;;26.73;16.97;;;;;;;-141.97;49.96;47507.53;4994849;28;20638;-90
2023/03/25 07:37:44;;;;;;;23.47;14.13;;;;;;;-141.97;48.89;47813.16;4996006;28;20167;-89
2023/03/25 07:40:10;;;;;;;33.57;21.20;;;;;;;-141.97;47.11;47497.94;5001788;28;20179;-90
2023/03/25 07:42:36;;;;;;;38.70;22.87;;;;;;;-141.97;46.03;47472.94;4998037;28;20226;-91
2023/03/25 07:45:02;;;;;;;30.50;18.67;;;;;;;-141.97;46.27;47582.50;4995400;28;20546;-91
2023/03/25 07:47:28;;;;;;;21.80;13.77;;;;;;;-141.97;45.35;47544.06;4997506;28;20183;-88
2023/03/25 07:49:53;;;;;;;20.57;11.77;;;;;;;-141.97;44.62;47701.69;4995470;28;20253;-91
2023/03/25 07:52:18;;;;;;;16.67;11.30;;;;;;;-141.97;43.64;47622.88;4994099;28;20237;-92
2023/03/25 07:54:44;;;;;;;25.23;15.80;;;;;;;-141.97;43.96;47549.84;4994543;28;20175;-92
2023/03/25 07:57:09;;;;;;;16.77;11.53;;;;;;;-141.97;43.53;47645.94;4995023;28;20269;-89
2023/03/25 07:59:35;;;;;;;18.57;12.27;;;;;;;-141.97;43.52;47594.03;4994392;28;20170;-89
2023/03/25 08:02:01;;;;;;;18.63;11.77;;;;;;;-141.97;42.96;47749.72;4993213;28;20175;-88
2023/03/25 08:04:26;;;;;;;17.23;11.63;;;;;;;-141.97;42.91;47615.19;4994261;28;20159;-90
2023/03/25 08:06:52;;;;;;;18.03;11.30;;;;;;;-141.97;42.13;47653.63;4992495;28;20258;-90
2023/03/25 08:09:17;;;;;;;14.07;9.93;;;;;;;-141.97;42.28;47642.09;5008678;28;20202;-89
2023/03/25 08:11:42;;;;;;;15.70;11.37;;;;;;;-141.97;42.09;47607.50;4992832;28;20199;-90
2023/03/25 08:14:08;;;;;;;15.57;10.90;;;;;;;-141.97;41.96;47722.81;4994280;28;20620;-90
2023/03/25 08:16:33;;;;;;;17.13;11.20;;;;;;;-141.97;42.09;47692.06;4992773;28;20275;-89
2023/03/25 08:18:59;;;;;;;17.90;11.73;;;;;;;-141.97;41.69;47592.13;4994464;28;20167;-89
2023/03/25 08:21:24;;;;;;;16.80;11.80;;;;;;;-141.97;40.82;47532.53;4994001;28;20226;-89
2023/03/25 08:23:57;;;;;;;17.80;11.70;;;;;;;-141.97;40.12;47530.59;5008122;28;20230;-91
2023/03/25 08:26:26;;;;;;;19.17;11.20;;;;;;;-141.97;39.82;47734.34;4993761;28;20198;-90
2023/03/25 08:28:56;;;;;;;16.03;11.23;;;;;;;-141.97;40.09;47634.41;4993386;28;20234;-92
2023/03/25 08:31:22;;;;;;;26.73;18.33;;;;;;;-141.97;39.77;47619.03;4992594;28;21170;-90
2023/03/25 08:33:48;;;;;;;17.07;11.13;;;;;;;-141.97;39.46;47588.28;4975555;28;20263;-89
2023/03/25 08:36:18;;;;;;;17.53;11.50;;;;;;;-141.97;39.70;47765.09;4987618;28;20613;-89
2023/03/25 08:38:44;;;;;;;18.73;12.17;;;;;;;-141.97;39.26;47517.16;4974282;28;20160;-89
2023/03/25 08:41:09;;;;;;;18.13;12.10;;;;;;;-141.97;38.56;47644.00;4972485;28;20307;-89
2023/03/25 08:43:35;;;;;;;28.00;17.30;;;;;;;-141.97;37.86;47524.84;4974139;28;20640;-89
2023/03/25 08:46:00;;;;;;;17.50;12.20;;;;;;;-141.97;38.34;47492.16;4974266;28;20175;-89
2023/03/25 08:48:25;;;;;;;16.07;11.33;;;;;;;-141.97;37.48;47584.44;4973453;28;20194;-90
2023/03/25 08:50:52;;;;;;;14.73;10.77;;;;;;;-141.97;37.68;47440.28;4994507;28;20321;-90
2023/03/25 08:53:17;;;;;;;16.83;10.83;;;;;;;-141.97;37.46;47480.63;4991196;28;20186;-89
2023/03/25 08:55:43;;;;;;;20.27;13.80;;;;;;;-141.97;37.66;47684.38;4993983;28;20186;-89
2023/03/25 08:58:08;;;;;;;17.30;12.03;;;;;;;-141.97;37.33;47734.34;4992900;28;20171;-88
2023/03/25 09:00:36;;;;;;;16.83;11.07;;;;;;;-141.97;37.41;47745.88;4994518;28;20412;-87
2023/03/25 09:03:03;;;;;;;16.90;11.07;;;;;;;-141.97;36.46;47490.25;4994156;28;20273;-86
2023/03/25 09:05:28;;;;;;;19.80;13.23;;;;;;;-141.97;36.24;47595.97;4998264;28;20202;-87
2023/03/25 09:07:54;;;;;;;15.73;10.53;;;;;;;-141.97;35.93;47570.97;4993907;28;20587;-87
2023/03/25 09:10:20;;;;;;;17.43;10.87;;;;;;;-141.97;35.70;47559.44;4993148;28;20186;-87
2023/03/25 09:12:45;;;;;;;17.63;10.10;;;;;;;-141.97;35.58;47422.97;4992894;28;20217;-87
2023/03/25 09:15:11;;;;;;;17.37;10.20;;;;;;;-141.97;35.54;47732.44;4997272;28;20184;-88
2023/03/25 09:17:38;;;;;;;14.37;9.90;;;;;;;-141.97;35.07;47569.06;5001736;28;20171;-89
2023/03/25 09:20:07;;;;;;;15.40;10.30;;;;;;;-141.97;34.57;47555.59;4994086;28;20222;-89
2023/03/25 09:22:35;;;;;;;16.50;10.40;;;;;;;-141.97;34.50;47768.94;4994128;28;20651;-88
2023/03/25 09:25:01;;;;;;;16.53;10.30;;;;;;;-141.97;34.35;47415.28;4993877;28;20156;-88
2023/03/25 09:27:27;;;;;;;14.40;10.93;;;;;;;-141.97;34.30;47534.44;4992611;28;20240;-88
2023/03/25 09:29:52;;;;;;;14.43;10.47;;;;;;;-141.97;34.81;47580.59;5000978;28;20550;-87
2023/03/25 09:32:18;;;;;;;15.47;11.57;;;;;;;-141.97;34.78;47365.31;4993664;28;20167;-87
2023/03/25 09:34:44;;;;;;;16.90;10.87;;;;;;;-141.97;34.45;47463.34;4993424;28;20253;-88
2023/03/25 09:37:09;;;;;;;16.30;10.47;;;;;;;-141.97;34.97;47751.66;4994029;28;20225;-88
2023/03/25 09:39:35;;;;;;;17.53;12.43;;;;;;;-141.97;34.16;47597.88;4994095;28;20187;-88
2023/03/25 09:42:34;;;;;;;17.17;11.70;;;;;;;-141.97;34.53;47567.13;4993402;28;20297;-88
2023/03/25 09:45:02;;;;;;;18.97;11.30;;;;;;;-141.97;34.07;47599.81;4994250;28;20594;-88
2023/03/25 09:47:32;;;;;;;14.83;10.77;;;;;;;-141.97;33.47;47461.41;4993551;28;20195;-87
2023/03/25 09:50:00;;;;;;;16.60;10.73;;;;;;;-141.97;33.12;47576.75;4994025;28;20202;-87
2023/03/25 09:52:48;;;;;;;14.47;10.13;;;;;;;-141.97;32.05;47457.56;4999388;28;20638;-88
2023/03/25 09:55:21;;;;;;;16.47;10.33;;;;;;;-141.97;31.85;47521.00;4992608;28;20233;-88
2023/03/25 09:57:50;;;;;;;15.93;12.13;;;;;;;-141.97;32.12;47480.63;4974429;28;20270;-87
2023/03/25 10:00:19;;;;;;;16.33;11.70;;;;;;;-141.97;32.42;47526.75;4990117;28;20191;-90
2023/03/25 10:02:44;;;;;;;15.80;11.40;;;;;;;-141.97;31.70;47546.00;4990407;28;20159;-87
2023/03/25 10:05:49;;;;;;;14.93;10.83;;;;;;;-141.97;31.46;47519.06;4975090;28;20183;-89
2023/03/25 10:08:44;;;;;;;13.97;10.27;;;;;;;-141.97;31.00;47538.28;4989976;28;20190;-88
2023/03/25 10:11:35;;;;;;;15.47;9.97;;;;;;;-141.97;31.20;47542.16;4990022;28;20167;-89
2023/03/25 10:14:19;;;;;;;15.20;10.53;;;;;;;-141.97;31.02;47540.22;4990048;28;20270;-87
2023/03/25 10:16:56;;;;;;;16.23;10.77;;;;;;;-141.97;31.09;47557.53;4973085;28;20222;-87
2023/03/25 10:19:33;;;;;;;16.30;10.90;;;;;;;-141.97;31.05;47559.44;5003257;23;20235;-86
2023/03/25 10:22:16;;;;;;;18.17;10.77;;;;;;;-141.97;31.14;47540.22;4988325;28;20179;-86
2023/03/25 10:24:57;;;;;;;14.50;10.97;;;;;;;-141.97;31.21;47713.22;4973059;28;20179;-88
2023/03/25 10:27:25;;;;;;;15.63;11.03;;;;;;;-141.97;30.84;47586.34;4972460;28;20247;-87
2023/03/25 10:30:03;;;;;;;16.27;11.00;;;;;;;-141.97;30.63;47534.44;4972199;28;20214;-88
2023/03/25 10:32:50;;;;;;;15.70;10.03;;;;;;;-141.97;31.22;47524.84;4991932;28;20182;-88
2023/03/25 10:35:22;;;;;;;13.27;9.60;;;;;;;-141.97;31.37;47546.00;4976894;28;20175;-88
2023/03/25 10:37:50;;;;;;;15.47;10.33;;;;;;;-141.97;31.24;47422.97;4977229;28;20230;-89
2023/03/25 10:40:26;;;;;;;13.83;10.80;;;;;;;-141.97;31.78;47524.84;4975534;28;20184;-89
2023/03/25 10:42:57;;;;;;;14.53;10.60;;;;;;;-141.97;31.16;47519.06;4988594;28;20236;-88
2023/03/25 10:45:25;;;;;;;18.33;13.23;;;;;;;-141.97;31.30;47549.84;4982106;28;20187;-87
2023/03/25 10:47:55;;;;;;;15.77;11.10;;;;;;;-141.97;31.00;47574.81;4977592;28;20308;-87
2023/03/25 10:50:20;;;;;;;13.53;10.53;;;;;;;-141.97;30.82;47615.19;4982389;28;20186;-88
2023/03/25 10:52:48;;;;;;;16.30;10.27;;;;;;;-141.97;30.72;47569.06;4978830;28;20176;-86
2023/03/25 10:55:27;;;;;;;14.60;10.10;;;;;;;-141.97;30.25;47513.31;4983362;28;20687;-89
2023/03/25 10:57:55;;;;;;;13.95;10.00;;;;;;;-141.97;30.46;47569.06;4984545;28;20282;-88
2023/03/25 11:00:23;;;;;;;13.82;10.23;;;;;;;-141.97;30.00;47499.84;4985878;28;20220;-88
2023/03/25 11:02:49;;;;;;;14.13;10.73;;;;;;;-141.97;30.32;47538.28;4993618;28;20190;-88
2023/03/25 11:05:19;;;;;;;14.63;10.40;;;;;;;-141.97;31.02;47538.28;4977216;28;20657;-88
2023/03/25 11:07:50;;;;;;;20.88;10.43;;;;;;;-141.97;30.98;47549.84;4983283;28;20183;-87
2023/03/25 11:10:25;;;;;;;15.63;10.93;;;;;;;-141.97;31.40;47484.47;4980979;28;20657;-88
2023/03/25 11:12:52;;;;;;;14.90;11.00;;;;;;;-141.97;31.41;47615.19;4977231;28;20629;-87
2023/03/25 11:15:38;;;;;;;14.03;10.00;;;;;;;-141.97;31.61;47542.16;4978400;28;20208;-87